Time;durP1;ratioP1;P1;durP2;ratioP2;P2;SDS_P1;SDS_P2;PMS_P1;PMS_P2;Temp;Humidity;BMP_temperature;BMP_pressure;BME280_temperature;BME280_humidity;BME280_pressure;Samples;Min_cycle;Max_cycle;Signal;HPM_P1;HPM_P2
2021/07/16 00:02:14;;;;;;;4.27;3.53;;;15.00;99.90;;;;;;5090740;28;20609;-90
2021/07/16 00:04:42;;;;;;;5.40;4.37;;;15.00;99.90;;;;;;5090447;28;20627;-89
2021/07/16 00:07:09;;;;;;;4.30;3.90;;;14.90;99.90;;;;;;5090303;28;20644;-89
2021/07/16 00:09:37;;;;;;;4.00;3.60;;;14.90;99.90;;;;;;5091118;28;20760;-89
2021/07/16 00:12:05;;;;;;;4.73;4.33;;;14.90;99.90;;;;;;5091035;28;20604;-90
2021/07/16 00:14:36;;;;;;;4.40;4.00;;;14.80;99.90;;;;;;5090799;28;20666;-91
2021/07/16 00:17:04;;;;;;;6.27;4.37;;;14.80;99.90;;;;;;5091167;28;21269;-90
2021/07/16 00:19:31;;;;;;;4.73;3.80;;;14.70;99.90;;;;;;5091378;28;20629;-91
2021/07/16 00:21:58;;;;;;;4.23;3.93;;;14.80;99.90;;;;;;5090941;28;20639;-91
2021/07/16 00:24:25;;;;;;;4.90;4.23;;;14.70;99.90;;;;;;5091186;28;20775;-91
2021/07/16 00:26:52;;;;;;;4.23;3.93;;;14.70;99.90;;;;;;5091120;28;20645;-91
2021/07/16 00:29:20;;;;;;;4.73;4.33;;;14.70;99.90;;;;;;5091271;28;20648;-91
2021/07/16 00:31:48;;;;;;;5.20;4.80;;;14.60;99.90;;;;;;5094538;28;20619;-92
2021/07/16 00:34:16;;;;;;;4.30;3.90;;;14.60;99.90;;;;;;5111283;28;20627;-90
2021/07/16 00:36:44;;;;;;;3.90;3.50;;;14.60;99.90;;;;;;5111089;28;20616;-90
2021/07/16 00:39:11;;;;;;;2.93;2.37;;;14.60;99.90;;;;;;5111401;28;20619;-91
2021/07/16 00:41:38;;;;;;;4.23;3.87;;;14.60;99.90;;;;;;5111416;28;20619;-90
2021/07/16 00:44:06;;;;;;;3.53;3.17;;;14.60;99.90;;;;;;5110992;28;21418;-90
2021/07/16 00:46:33;;;;;;;4.53;4.23;;;14.50;99.90;;;;;;5110986;28;20620;-90
2021/07/16 00:49:02;;;;;;;3.60;3.30;;;14.50;99.90;;;;;;5111302;28;20746;-90
2021/07/16 00:51:29;;;;;;;4.43;4.03;;;14.50;99.90;;;;;;5111124;28;20603;-89
2021/07/16 00:53:56;;;;;;;4.63;3.83;;;14.40;99.90;;;;;;5111136;28;20607;-91
2021/07/16 00:56:23;;;;;;;4.07;3.77;;;14.40;99.90;;;;;;5098427;28;21161;-90
2021/07/16 00:58:53;;;;;;;6.80;3.97;;;14.50;99.90;;;;;;5089984;28;21020;-91
2021/07/16 01:01:20;;;;;;;4.97;4.57;;;14.40;99.90;;;;;;5090684;28;20722;-89
2021/07/16 01:03:50;;;;;;;4.77;4.37;;;14.40;99.90;;;;;;5090175;28;21189;-90
2021/07/16 01:06:20;;;;;;;4.70;4.30;;;14.40;99.90;;;;;;5090417;28;20608;-89
2021/07/16 01:08:48;;;;;;;5.60;5.10;;;14.40;99.90;;;;;;5085181;28;20688;-91
2021/07/16 01:11:17;;;;;;;3.70;3.40;;;14.40;99.90;;;;;;5090219;28;20715;-90
2021/07/16 01:13:46;;;;;;;8.07;4.70;;;14.40;99.90;;;;;;5090853;28;20646;-90
2021/07/16 01:16:15;;;;;;;5.63;4.77;;;14.40;99.90;;;;;;5095111;28;20671;-90
2021/07/16 01:18:44;;;;;;;4.93;4.40;;;14.40;99.90;;;;;;5101620;28;20640;-90
2021/07/16 01:21:14;;;;;;;4.37;3.97;;;14.40;99.90;;;;;;5096345;28;20627;-90
2021/07/16 01:23:43;;;;;;;4.37;4.00;;;14.30;99.90;;;;;;5113796;28;20672;-90
2021/07/16 01:26:13;;;;;;;5.10;4.60;;;14.30;99.90;;;;;;5106988;28;20663;-91
2021/07/16 01:28:41;;;;;;;5.10;4.70;;;14.30;99.90;;;;;;5093997;28;21197;-90
2021/07/16 01:31:10;;;;;;;5.63;4.97;;;14.30;99.90;;;;;;5094282;28;20612;-90
2021/07/16 01:33:39;;;;;;;5.60;5.10;;;14.30;99.90;;;;;;5094156;28;21206;-91
2021/07/16 01:36:07;;;;;;;5.60;4.50;;;14.30;99.90;;;;;;5112384;28;21011;-91
2021/07/16 01:38:36;;;;;;;9.57;5.53;;;14.30;99.90;;;;;;5114211;28;20654;-90
2021/07/16 01:41:08;;;;;;;5.90;4.93;;;14.30;99.90;;;;;;5114432;28;20611;-91
2021/07/16 01:43:39;;;;;;;5.47;5.07;;;14.50;99.90;;;;;;5114298;28;20943;-90
2021/07/16 01:46:07;;;;;;;6.40;5.80;;;14.50;99.90;;;;;;5113849;28;20676;-92
2021/07/16 01:48:36;;;;;;;6.50;5.90;;;14.50;99.90;;;;;;5113728;28;20973;-90
2021/07/16 01:51:05;;;;;;;7.93;5.70;;;14.40;99.90;;;;;;5112869;28;20723;-91
2021/07/16 01:53:33;;;;;;;6.00;5.50;;;14.50;99.90;;;;;;5093497;28;20623;-91
2021/07/16 01:56:01;;;;;;;8.93;5.80;;;14.50;99.90;;;;;;5093048;28;20623;-91
2021/07/16 01:58:32;;;;;;;7.90;5.20;;;14.50;99.90;;;;;;5092500;28;20624;-91
2021/07/16 02:01:01;;;;;;;5.57;5.07;;;14.50;99.90;;;;;;5093676;28;20722;-90
2021/07/16 02:03:30;;;;;;;6.40;5.80;;;14.60;99.90;;;;;;5102816;28;20619;-91
2021/07/16 02:05:59;;;;;;;5.13;4.63;;;14.60;99.90;;;;;;5113244;28;20635;-90
2021/07/16 02:08:28;;;;;;;6.83;6.33;;;14.60;99.90;;;;;;5113907;28;20625;-92
2021/07/16 02:11:00;;;;;;;6.87;5.23;;;14.60;99.90;;;;;;5113787;28;20654;-91
2021/07/16 02:13:27;;;;;;;7.20;6.50;;;14.50;99.90;;;;;;5113468;28;21183;-90
2021/07/16 02:15:57;;;;;;;6.30;5.20;;;14.60;99.90;;;;;;5112873;28;20692;-90
2021/07/16 02:18:26;;;;;;;10.47;5.57;;;14.70;99.90;;;;;;5109050;28;20651;-91
2021/07/16 02:20:54;;;;;;;5.33;4.93;;;14.70;99.90;;;;;;5112986;28;20658;-91
2021/07/16 02:23:26;;;;;;;6.50;5.80;;;14.70;99.90;;;;;;5113504;28;20623;-90
2021/07/16 02:25:55;;;;;;;6.40;5.80;;;14.60;99.90;;;;;;5112924;28;20638;-91
2021/07/16 02:28:28;;;;;;;6.13;5.53;;;14.50;99.90;;;;;;5113139;28;20743;-91
2021/07/16 02:30:59;;;;;;;6.73;6.10;;;14.50;99.90;;;;;;5112737;28;20670;-91
2021/07/16 02:33:27;;;;;;;6.00;5.40;;;14.40;99.90;;;;;;5113238;28;20710;-91
2021/07/16 02:35:55;;;;;;;6.43;5.90;;;14.40;99.90;;;;;;5112669;28;20692;-91
2021/07/16 02:38:22;;;;;;;7.53;6.77;;;14.50;99.90;;;;;;5113148;28;20668;-91
2021/07/16 02:40:50;;;;;;;6.93;6.23;;;14.50;99.90;;;;;;5112771;28;20716;-90
2021/07/16 02:43:17;;;;;;;7.00;6.40;;;14.50;99.90;;;;;;5112984;28;20619;-90
2021/07/16 02:45:44;;;;;;;7.50;6.80;;;14.50;99.90;;;;;;5112466;28;20611;-91
2021/07/16 02:48:14;;;;;;;6.67;6.07;;;14.50;99.90;;;;;;5113277;28;20595;-91
2021/07/16 02:50:42;;;;;;;9.40;6.37;;;14.50;99.90;;;;;;5112908;28;20650;-91
2021/07/16 02:53:12;;;;;;;7.30;6.60;;;14.60;99.90;;;;;;5113156;28;20615;-91
2021/07/16 02:55:41;;;;;;;8.00;7.30;;;14.50;99.90;;;;;;5106479;28;20652;-91
2021/07/16 02:58:08;;;;;;;6.77;6.10;;;14.40;99.90;;;;;;5091714;28;20675;-91
2021/07/16 03:00:37;;;;;;;6.67;5.87;;;14.40;99.90;;;;;;5092432;28;20611;-91
2021/07/16 03:03:05;;;;;;;6.63;5.90;;;14.40;99.90;;;;;;5092236;28;20632;-91
2021/07/16 03:05:35;;;;;;;8.07;5.40;;;14.50;99.90;;;;;;5091962;28;20628;-91
2021/07/16 03:08:03;;;;;;;7.03;6.40;;;14.50;99.90;;;;;;5092420;28;20644;-91
2021/07/16 03:10:32;;;;;;;8.27;6.30;;;14.60;99.90;;;;;;5092455;28;20645;-90
2021/07/16 03:13:01;;;;;;;7.03;5.23;;;14.60;99.90;;;;;;5092197;28;20644;-91
2021/07/16 03:15:28;;;;;;;6.43;5.93;;;14.60;99.90;;;;;;5091666;28;20612;-91
2021/07/16 03:17:56;;;;;;;7.67;6.97;;;14.60;99.90;;;;;;5092120;28;20623;-91
2021/07/16 03:20:26;;;;;;;7.20;6.03;;;14.60;99.90;;;;;;5091707;28;20689;-90
2021/07/16 03:22:55;;;;;;;7.40;6.70;;;14.60;99.90;;;;;;5092146;28;20609;-92
2021/07/16 03:25:23;;;;;;;7.37;6.67;;;14.50;99.90;;;;;;5094059;28;20644;-92
2021/07/16 03:27:51;;;;;;;8.70;6.90;;;14.50;99.90;;;;;;5111958;28;20662;-92
2021/07/16 03:30:21;;;;;;;8.63;7.00;;;14.50;99.90;;;;;;5107966;28;20684;-92
2021/07/16 03:32:48;;;;;;;6.60;5.90;;;14.60;99.90;;;;;;5111880;28;20655;-92
2021/07/16 03:35:16;;;;;;;33.03;8.77;;;14.50;99.90;;;;;;5111405;28;21239;-91
2021/07/16 03:37:44;;;;;;;11.73;6.70;;;14.50;99.90;;;;;;5112406;28;20630;-91
2021/07/16 03:40:21;;;;;;;9.60;7.00;;;14.50;99.90;;;;;;5112027;28;20616;-91
2021/07/16 03:42:48;;;;;;;9.17;6.50;;;14.60;99.90;;;;;;5111926;28;20603;-91
2021/07/16 03:45:18;;;;;;;7.73;6.40;;;14.60;99.90;;;;;;5111087;28;20671;-91
2021/07/16 03:47:47;;;;;;;7.50;6.83;;;14.70;99.90;;;;;;5111947;28;20643;-91
2021/07/16 03:50:17;;;;;;;8.10;6.57;;;14.80;99.90;;;;;;5111951;28;21273;-92
2021/07/16 03:52:44;;;;;;;8.20;6.63;;;14.80;99.90;;;;;;5111789;28;21275;-91
2021/07/16 03:55:14;;;;;;;8.30;7.10;;;14.80;99.90;;;;;;5108906;28;20658;-90
2021/07/16 03:57:58;;;;;;;7.77;6.90;;;14.80;99.90;;;;;;5090665;28;20627;-91
2021/07/16 04:00:32;;;;;;;7.83;7.07;;;14.80;99.90;;;;;;5083356;28;20608;-91
2021/07/16 04:03:12;;;;;;;8.67;6.27;;;14.80;99.90;;;;;;5091579;28;20628;-91
2021/07/16 04:06:08;;;;;;;8.20;6.53;;;14.80;99.90;;;;;;5091376;28;20656;-91
2021/07/16 04:08:39;;;;;;;7.30;6.43;;;14.80;99.90;;;;;;5091563;28;20622;-92
2021/07/16 04:11:22;;;;;;;8.57;7.77;;;14.80;99.90;;;;;;5091399;28;20652;-91
2021/07/16 04:13:49;;;;;;;8.07;7.37;;;14.80;99.90;;;;;;5091331;28;20620;-91
2021/07/16 04:16:38;;;;;;;8.03;7.33;;;14.90;99.90;;;;;;5091124;28;21074;-92
2021/07/16 04:19:05;;;;;;;7.63;6.97;;;14.90;99.90;;;;;;5091264;28;20612;-91
2021/07/16 04:21:32;;;;;;;6.87;6.27;;;15.00;99.90;;;;;;5091222;28;20687;-90
2021/07/16 04:23:59;;;;;;;7.80;7.10;;;15.00;99.90;;;;;;5091074;28;20663;-91
2021/07/16 04:26:27;;;;;;;6.80;6.20;;;15.00;99.90;;;;;;5101821;28;20713;-91
2021/07/16 04:28:56;;;;;;;7.07;5.90;;;15.00;99.90;;;;;;5111064;28;20615;-92
2021/07/16 04:31:23;;;;;;;6.33;5.80;;;15.00;99.90;;;;;;5102761;28;21249;-91
2021/07/16 04:33:51;;;;;;;6.30;5.50;;;15.00;99.90;;;;;;5111229;28;20710;-91
2021/07/16 04:36:19;;;;;;;6.80;6.10;;;15.10;99.90;;;;;;5110915;28;21073;-91
2021/07/16 04:38:46;;;;;;;7.00;5.60;;;15.10;99.90;;;;;;5111201;28;20615;-90
2021/07/16 04:41:19;;;;;;;8.60;6.07;;;15.20;99.90;;;;;;5111209;28;20608;-91
2021/07/16 04:43:49;;;;;;;6.47;5.87;;;15.30;99.90;;;;;;5111099;28;20650;-91
2021/07/16 04:46:17;;;;;;;6.30;5.80;;;15.20;99.90;;;;;;5111040;28;21215;-91
2021/07/16 04:48:55;;;;;;;6.40;5.80;;;15.20;99.90;;;;;;5106747;28;20645;-91
2021/07/16 04:51:26;;;;;;;6.10;5.50;;;15.20;99.90;;;;;;5110960;28;21271;-91
2021/07/16 04:53:53;;;;;;;6.17;5.57;;;15.30;99.90;;;;;;5112083;28;20619;-91
2021/07/16 04:56:20;;;;;;;5.83;5.33;;;15.30;99.90;;;;;;5102427;28;20719;-91
2021/07/16 04:58:49;;;;;;;6.00;5.00;;;15.30;99.90;;;;;;5093621;28;20969;-91
2021/07/16 05:01:16;;;;;;;7.00;6.40;;;15.40;99.90;;;;;;5094403;28;20635;-91
2021/07/16 05:03:44;;;;;;;6.53;5.93;;;15.40;99.90;;;;;;5094183;28;20659;-90
2021/07/16 05:06:12;;;;;;;6.50;6.00;;;15.30;99.90;;;;;;5093812;28;20624;-90
2021/07/16 05:08:39;;;;;;;6.70;6.10;;;15.40;99.90;;;;;;5114115;28;20664;-90
2021/07/16 05:11:07;;;;;;;6.80;6.20;;;15.40;99.90;;;;;;5114653;28;21226;-91
2021/07/16 05:13:36;;;;;;;7.20;6.60;;;15.50;99.90;;;;;;5114027;28;20612;-91
2021/07/16 05:16:05;;;;;;;10.40;8.57;;;15.60;99.90;;;;;;5114314;28;21246;-90
2021/07/16 05:18:33;;;;;;;13.73;9.50;;;15.50;99.90;;;;;;5114686;28;20607;-90
2021/07/16 05:21:01;;;;;;;13.80;9.47;;;15.50;99.90;;;;;;5114110;28;21209;-92
2021/07/16 05:23:29;;;;;;;11.00;9.90;;;15.50;99.90;;;;;;5114290;28;20712;-89
2021/07/16 05:25:56;;;;;;;9.77;8.77;;;15.60;99.90;;;;;;5102142;28;20632;-90
2021/07/16 05:28:24;;;;;;;11.80;9.47;;;15.60;99.90;;;;;;5099905;28;21369;-90
2021/07/16 05:30:52;;;;;;;11.83;10.43;;;15.60;99.90;;;;;;5097815;28;20645;-91
2021/07/16 05:33:21;;;;;;;10.87;9.77;;;15.70;99.90;;;;;;5095024;28;21178;-91
2021/07/16 05:35:48;;;;;;;13.90;9.23;;;15.80;99.90;;;;;;5100362;28;20626;-91
2021/07/16 05:38:17;;;;;;;11.00;9.90;;;15.80;99.90;;;;;;5094951;28;20621;-92
2021/07/16 05:40:44;;;;;;;11.53;10.40;;;16.00;99.90;;;;;;5095621;28;20624;-91
2021/07/16 05:43:14;;;;;;;10.57;9.50;;;16.10;99.90;;;;;;5096252;28;20701;-91
2021/07/16 05:45:43;;;;;;;12.20;11.00;;;16.10;99.90;;;;;;5100563;28;20730;-92
2021/07/16 05:48:13;;;;;;;11.57;10.47;;;16.30;99.90;;;;;;5111768;28;21896;-92
2021/07/16 05:50:43;;;;;;;11.03;10.03;;;16.30;99.90;;;;;;5104248;28;20772;-92
2021/07/16 05:53:13;;;;;;;10.43;9.40;;;16.30;99.90;;;;;;5104310;28;20711;-90
2021/07/16 05:55:40;;;;;;;11.40;10.30;;;16.20;99.90;;;;;;5103875;28;20651;-92
2021/07/16 05:58:10;;;;;;;11.57;10.50;;;16.30;99.90;;;;;;5101929;28;20646;-91
2021/07/16 06:00:37;;;;;;;10.47;9.37;;;16.30;99.90;;;;;;5105362;28;20658;-91
2021/07/16 06:03:05;;;;;;;11.00;9.90;;;16.40;99.90;;;;;;5105099;28;20690;-90
2021/07/16 06:05:33;;;;;;;10.90;9.73;;;16.50;99.90;;;;;;5098614;28;20628;-91
2021/07/16 06:08:04;;;;;;;12.20;11.00;;;16.70;99.90;;;;;;5094985;28;20616;-92
2021/07/16 06:10:32;;;;;;;12.80;11.50;;;16.90;99.90;;;;;;5104756;28;20650;-93
2021/07/16 06:13:04;;;;;;;12.50;10.67;;;17.10;99.90;;;;;;5104013;28;20624;-92
2021/07/16 06:16:03;;;;;;;11.93;10.63;;;17.00;99.90;;;;;;5088825;28;21091;-92
2021/07/16 06:18:59;;;;;;;10.90;9.90;;;17.00;99.90;;;;;;5100319;28;20622;-93
2021/07/16 06:21:33;;;;;;;13.17;11.90;;;17.10;99.90;;;;;;5086426;28;21296;-91
2021/07/16 06:24:05;;;;;;;15.03;10.80;;;16.80;99.90;;;;;;5101662;28;21048;-91
2021/07/16 06:26:36;;;;;;;12.50;11.30;;;16.70;99.90;;;;;;5097460;28;20692;-92
2021/07/16 06:29:23;;;;;;;16.13;11.90;;;16.80;99.90;;;;;;5099727;28;20666;-92
2021/07/16 06:31:51;;;;;;;12.20;11.07;;;16.90;99.90;;;;;;5096305;28;20687;-92
2021/07/16 06:34:29;;;;;;;12.30;11.00;;;17.10;99.90;;;;;;5099827;28;20626;-92
2021/07/16 06:36:56;;;;;;;12.90;11.60;;;17.20;99.90;;;;;;5088464;28;20773;-92
2021/07/16 06:39:27;;;;;;;13.40;11.47;;;17.10;99.90;;;;;;5095610;28;20627;-93
2021/07/16 06:41:57;;;;;;;13.60;12.30;;;17.20;99.90;;;;;;5101265;28;20620;-92
2021/07/16 06:44:25;;;;;;;12.80;11.50;;;17.20;99.90;;;;;;5101868;28;20647;-90
2021/07/16 06:46:53;;;;;;;12.83;11.50;;;17.20;99.90;;;;;;5103520;28;20630;-91
2021/07/16 06:49:26;;;;;;;11.30;10.20;;;17.00;99.90;;;;;;5104449;28;20628;-92
2021/07/16 06:52:04;;;;;;;11.83;10.37;;;17.10;99.90;;;;;;5099772;28;21142;-93
2021/07/16 06:54:32;;;;;;;12.47;11.27;;;17.30;99.90;;;;;;5099479;28;20621;-92
2021/07/16 06:57:01;;;;;;;13.40;12.10;;;17.20;99.90;;;;;;5101334;28;20710;-93
2021/07/16 06:59:28;;;;;;;12.33;11.17;;;17.20;99.90;;;;;;5101702;28;20717;-91
2021/07/16 07:01:56;;;;;;;12.27;11.07;;;17.20;99.90;;;;;;5102720;28;20655;-91
2021/07/16 07:04:24;;;;;;;11.87;9.93;;;17.10;99.90;;;;;;5103520;28;20623;-92
2021/07/16 07:06:51;;;;;;;13.17;11.87;;;17.20;99.90;;;;;;5099971;28;20624;-92
2021/07/16 07:09:19;;;;;;;12.87;11.63;;;17.20;99.90;;;;;;5098078;28;20622;-92
2021/07/16 07:12:08;;;;;;;12.17;11.07;;;17.20;99.90;;;;;;5093968;28;20666;-94
2021/07/16 07:14:36;;;;;;;13.87;12.53;;;17.40;99.90;;;;;;5089353;28;20699;-92
2021/07/16 07:17:04;;;;;;;13.07;11.77;;;17.50;99.90;;;;;;5086075;28;20625;-92
2021/07/16 07:19:33;;;;;;;12.63;11.43;;;17.40;99.90;;;;;;5090493;28;20644;-91
2021/07/16 07:22:10;;;;;;;13.50;11.77;;;17.30;99.90;;;;;;5092095;28;20655;-92
2021/07/16 07:24:37;;;;;;;13.00;11.70;;;17.30;99.90;;;;;;5097401;28;20716;-91
2021/07/16 07:27:06;;;;;;;11.43;10.40;;;17.40;99.90;;;;;;5093539;28;20628;-92
2021/07/16 07:29:38;;;;;;;12.20;11.00;;;17.40;99.90;;;;;;5093084;28;20628;-92
2021/07/16 07:32:09;;;;;;;11.60;10.40;;;17.50;99.90;;;;;;5097033;28;20654;-91
2021/07/16 07:34:43;;;;;;;10.63;9.63;;;17.50;99.90;;;;;;5095667;28;20643;-92
2021/07/16 07:37:10;;;;;;;12.63;11.43;;;17.50;99.90;;;;;;5098106;28;22033;-91
2021/07/16 07:39:47;;;;;;;;;;;;;;;;;;;;;
2021/07/16 07:42:21;;;;;;;11.93;10.80;;;17.50;99.90;;;;;;5098516;28;20600;-92
2021/07/16 07:44:51;;;;;;;12.43;11.10;;;17.40;99.90;;;;;;5098104;28;20616;-93
2021/07/16 07:47:21;;;;;;;11.50;10.40;;;17.60;99.90;;;;;;5099520;28;21051;-92
2021/07/16 07:49:51;;;;;;;11.43;10.43;;;17.90;99.90;;;;;;5095697;28;20625;-92
2021/07/16 07:52:21;;;;;;;10.77;9.87;;;17.90;99.90;;;;;;5099291;28;20656;-92
2021/07/16 07:54:49;;;;;;;10.63;8.63;;;18.10;99.90;;;;;;5099915;28;20628;-92
2021/07/16 07:57:18;;;;;;;10.37;9.47;;;18.10;99.90;;;;;;5100808;28;20650;-92
2021/07/16 07:59:47;;;;;;;10.63;9.63;;;18.20;99.90;;;;;;5096685;28;21160;-91
2021/07/16 08:02:14;;;;;;;10.90;9.97;;;18.30;99.90;;;;;;5086339;28;20646;-90
2021/07/16 08:04:42;;;;;;;9.60;8.80;;;18.30;99.90;;;;;;5092354;28;20731;-92
2021/07/16 08:07:09;;;;;;;9.63;8.83;;;18.50;99.90;;;;;;5083548;28;20630;-89
2021/07/16 08:09:38;;;;;;;8.80;8.00;;;18.40;99.90;;;;;;5091738;28;20669;-92
2021/07/16 08:12:08;;;;;;;9.33;8.53;;;18.20;99.90;;;;;;5091060;28;20650;-90
2021/07/16 08:14:36;;;;;;;9.97;9.07;;;18.30;99.90;;;;;;5100560;28;20632;-91
2021/07/16 08:17:11;;;;;;;9.50;8.70;;;18.20;99.90;;;;;;5112881;28;20726;-91
2021/07/16 08:19:38;;;;;;;9.37;8.67;;;18.40;99.90;;;;;;5105676;28;20616;-91
2021/07/16 08:22:06;;;;;;;9.30;8.40;;;18.50;99.90;;;;;;5093540;28;20702;-91
2021/07/16 08:24:33;;;;;;;7.70;7.00;;;18.50;99.90;;;;;;5088137;28;20647;-91
2021/07/16 08:27:01;;;;;;;8.77;7.90;;;18.60;99.90;;;;;;5107645;28;20630;-92
2021/07/16 08:29:28;;;;;;;8.37;7.67;;;18.60;99.90;;;;;;5111895;28;20626;-91
2021/07/16 08:32:00;;;;;;;7.63;7.00;;;18.60;99.90;;;;;;5113423;28;21021;-91
2021/07/16 08:34:32;;;;;;;7.50;6.87;;;18.40;99.90;;;;;;5113644;28;20649;-89
2021/07/16 08:37:04;;;;;;;7.33;6.83;;;18.30;99.90;;;;;;5112671;28;21456;-91
2021/07/16 08:39:31;;;;;;;8.90;8.10;;;18.40;99.90;;;;;;5113085;28;20666;-91
2021/07/16 08:41:59;;;;;;;9.20;8.40;;;18.40;99.90;;;;;;5108364;28;20956;-89
2021/07/16 08:44:28;;;;;;;9.17;8.37;;;18.40;99.90;;;;;;5104081;28;20619;-90
2021/07/16 08:47:01;;;;;;;8.30;7.60;;;18.40;99.90;;;;;;5111759;28;20620;-93
2021/07/16 08:49:31;;;;;;;8.70;8.00;;;18.50;99.90;;;;;;5111102;28;20623;-91
2021/07/16 08:52:01;;;;;;;8.03;7.33;;;18.60;99.90;;;;;;5111504;28;20655;-91
2021/07/16 08:54:30;;;;;;;9.83;8.93;;;18.90;99.90;;;;;;5110828;28;20611;-91
2021/07/16 08:56:59;;;;;;;7.33;6.70;;;18.90;99.90;;;;;;5099555;28;20619;-92
2021/07/16 08:59:38;;;;;;;8.47;7.67;;;19.10;99.90;;;;;;5112506;28;20638;-89
2021/07/16 09:02:14;;;;;;;7.83;7.23;;;19.00;99.90;;;;;;5110942;28;20611;-90
2021/07/16 09:04:43;;;;;;;8.50;7.80;;;19.20;99.90;;;;;;5091603;28;21169;-91
2021/07/16 09:07:13;;;;;;;8.30;7.50;;;19.10;99.90;;;;;;5098103;28;20615;-91
2021/07/16 09:09:52;;;;;;;;;;;;;;;;;;;;;
2021/07/16 09:12:26;;;;;;;7.77;7.17;;;19.10;99.90;;;;;;5096179;28;20671;-91
2021/07/16 09:14:54;;;;;;;6.37;5.83;;;19.40;99.90;;;;;;5098374;28;20625;-91
2021/07/16 09:17:28;;;;;;;6.40;5.90;;;19.60;99.90;;;;;;5102788;28;20743;-90
2021/07/16 09:19:58;;;;;;;7.73;7.10;;;19.40;99.90;;;;;;5100683;28;20644;-90
2021/07/16 09:22:34;;;;;;;7.17;6.57;;;19.60;99.90;;;;;;5089586;28;20971;-90
2021/07/16 09:25:04;;;;;;;6.70;6.10;;;19.70;99.90;;;;;;5094453;28;20644;-89
2021/07/16 09:27:36;;;;;;;6.83;6.10;;;19.60;99.90;;;;;;5100282;28;20706;-91
2021/07/16 09:30:21;;;;;;;6.40;5.90;;;19.50;99.90;;;;;;5092145;28;20654;-88
2021/07/16 09:32:51;;;;;;;6.03;5.57;;;19.70;99.90;;;;;;5093010;28;20637;-90
2021/07/16 09:35:20;;;;;;;6.90;6.30;;;19.60;99.90;;;;;;5086987;28;20988;-90
2021/07/16 09:37:56;;;;;;;6.70;6.10;;;19.50;99.90;;;;;;5097736;28;20620;-90
2021/07/16 09:40:25;;;;;;;7.50;5.67;;;19.70;99.90;;;;;;5100402;28;20612;-90
2021/07/16 09:43:00;;;;;;;6.73;6.07;;;19.90;99.90;;;;;;5093385;28;21015;-89
2021/07/16 09:45:28;;;;;;;7.13;6.17;;;20.20;99.90;;;;;;5102802;28;20635;-91
2021/07/16 09:48:00;;;;;;;6.13;5.63;;;20.30;99.90;;;;;;5101042;28;20625;-91
2021/07/16 09:50:30;;;;;;;5.97;5.57;;;20.50;99.90;;;;;;5103818;28;20986;-89
2021/07/16 09:53:13;;;;;;;6.63;6.13;;;20.50;99.90;;;;;;5103766;28;20648;-90
2021/07/16 09:55:41;;;;;;;7.03;6.53;;;20.50;99.90;;;;;;5094408;28;21250;-88
2021/07/16 09:58:24;;;;;;;6.60;6.10;;;20.80;99.90;;;;;;5102216;28;20620;-91
2021/07/16 10:00:52;;;;;;;6.73;6.13;;;20.80;99.90;;;;;;5094175;28;20641;-89
2021/07/16 10:03:22;;;;;;;6.13;5.63;;;21.20;99.90;;;;;;5111624;28;20625;-91
2021/07/16 10:05:50;;;;;;;5.80;5.40;;;21.30;99.90;;;;;;5111370;28;20656;-89
2021/07/16 10:08:18;;;;;;;6.33;5.80;;;21.20;99.90;;;;;;5095249;28;20734;-90
2021/07/16 10:10:50;;;;;;;6.90;6.40;;;21.00;99.90;;;;;;5092046;28;20626;-90
2021/07/16 10:13:18;;;;;;;7.17;6.67;;;21.30;99.90;;;;;;5084892;28;20728;-89
2021/07/16 10:15:45;;;;;;;7.27;6.67;;;21.40;99.90;;;;;;5089930;28;20654;-90
2021/07/16 10:18:14;;;;;;;5.97;5.57;;;21.40;99.90;;;;;;5090687;28;20611;-87
2021/07/16 10:20:42;;;;;;;6.00;5.60;;;21.60;99.90;;;;;;5091579;28;20631;-91
2021/07/16 10:23:10;;;;;;;5.63;5.13;;;21.60;99.90;;;;;;5091838;28;20647;-90
2021/07/16 10:25:38;;;;;;;6.10;5.60;;;21.90;99.90;;;;;;5098915;28;20646;-91
2021/07/16 10:28:05;;;;;;;5.93;5.40;;;22.10;99.90;;;;;;5091106;28;20619;-88
2021/07/16 10:30:35;;;;;;;4.60;4.30;;;22.10;99.70;;;;;;5091198;28;20625;-89
2021/07/16 10:33:02;;;;;;;4.40;4.10;;;22.20;99.00;;;;;;5095712;28;21268;-87
2021/07/16 10:35:30;;;;;;;5.43;4.60;;;22.30;99.80;;;;;;5112061;28;20594;-89
2021/07/16 10:38:00;;;;;;;5.63;5.23;;;22.40;98.80;;;;;;5111261;28;20627;-89
2021/07/16 10:40:42;;;;;;;3.90;3.67;;;22.10;97.30;;;;;;5111155;28;20613;-89
2021/07/16 10:43:10;;;;;;;4.10;3.80;;;22.30;98.70;;;;;;5107177;28;20708;-90
2021/07/16 10:45:38;;;;;;;4.03;3.73;;;22.70;96.70;;;;;;5083866;28;20653;-90
2021/07/16 10:48:14;;;;;;;4.90;4.60;;;23.00;98.10;;;;;;5091386;28;20622;-91
2021/07/16 10:50:42;;;;;;;4.03;3.73;;;23.10;97.10;;;;;;5104812;28;20625;-87
2021/07/16 10:53:16;;;;;;;3.97;3.67;;;22.40;95.10;;;;;;5111096;28;20647;-87
2021/07/16 10:56:10;;;;;;;3.60;3.30;;;22.10;96.50;;;;;;5108440;28;20649;-87
2021/07/16 10:58:50;;;;;;;3.40;3.20;;;22.30;96.60;;;;;;5093383;28;20617;-90
2021/07/16 11:01:37;;;;;;;3.53;3.30;;;22.10;96.60;;;;;;5107386;28;21286;-89
2021/07/16 11:04:07;;;;;;;3.40;3.20;;;22.70;96.60;;;;;;5099631;28;20670;-90
2021/07/16 11:06:59;;;;;;;3.40;3.20;;;23.20;96.40;;;;;;5115335;28;20630;-89
2021/07/16 11:12:41;;;;;;;2.37;2.27;;;23.80;93.70;;;;;;5107461;28;20652;-89
2021/07/16 11:15:53;;;;;;;2.80;2.23;;;23.70;92.70;;;;;;5105347;28;20724;-91
2021/07/16 11:18:30;;;;;;;2.20;2.10;;;24.10;94.10;;;;;;5073166;28;20638;-87
2021/07/16 11:20:58;;;;;;;2.63;2.50;;;24.10;91.90;;;;;;5104525;28;20627;-88
2021/07/16 11:23:49;;;;;;;3.70;3.50;;;24.20;94.00;;;;;;5103449;28;20655;-86
2021/07/16 11:26:32;;;;;;;4.00;3.60;;;24.60;93.40;;;;;;5105487;28;20639;-89
2021/07/16 11:29:00;;;;;;;2.97;2.77;;;24.20;93.40;;;;;;5103490;28;20641;-87
2021/07/16 11:31:29;;;;;;;3.70;3.40;;;23.90;93.80;;;;;;5103009;28;20607;-88
2021/07/16 11:33:58;;;;;;;3.40;3.10;;;24.30;93.50;;;;;;5105471;28;20675;-89
2021/07/16 11:36:25;;;;;;;3.80;3.50;;;24.00;93.40;;;;;;5102993;28;21141;-88
2021/07/16 11:38:54;;;;;;;3.53;3.27;;;24.00;92.90;;;;;;5106851;28;20723;-88
2021/07/16 11:41:31;;;;;;;3.33;3.13;;;23.90;93.30;;;;;;5103180;28;20706;-89
2021/07/16 11:43:59;;;;;;;3.30;3.00;;;23.80;94.20;;;;;;5101450;28;20612;-88
2021/07/16 11:46:31;;;;;;;3.30;3.10;;;23.40;93.80;;;;;;5106137;28;20632;-89
2021/07/16 11:49:00;;;;;;;3.20;2.90;;;23.30;93.80;;;;;;5103686;28;20627;-88
2021/07/16 11:51:28;;;;;;;2.07;1.97;;;23.40;94.90;;;;;;5104030;28;20621;-89
2021/07/16 11:53:57;;;;;;;3.03;2.73;;;23.50;93.20;;;;;;5102263;28;20678;-91
2021/07/16 11:56:29;;;;;;;3.60;2.60;;;23.50;93.20;;;;;;5101540;28;20620;-86
2021/07/16 11:58:58;;;;;;;2.57;2.47;;;23.80;91.40;;;;;;5105620;28;20647;-90
2021/07/16 12:01:27;;;;;;;2.00;1.90;;;23.80;92.90;;;;;;5106722;28;20622;-89
2021/07/16 12:03:54;;;;;;;2.20;2.10;;;24.80;92.60;;;;;;5102482;28;20724;-89
2021/07/16 12:06:23;;;;;;;2.63;2.13;;;25.70;91.50;;;;;;5104480;28;20618;-90
2021/07/16 12:08:50;;;;;;;2.30;2.10;;;25.80;90.50;;;;;;5104072;28;20627;-87
2021/07/16 12:11:17;;;;;;;1.80;1.70;;;27.60;87.30;;;;;;5105148;28;20938;-89
2021/07/16 12:14:00;;;;;;;1.50;1.50;;;28.50;84.20;;;;;;5103080;28;20660;-89
2021/07/16 12:16:30;;;;;;;1.60;1.50;;;29.20;77.50;;;;;;5103548;28;20998;-90
2021/07/16 12:19:00;;;;;;;1.50;1.40;;;29.80;78.20;;;;;;5104962;28;20615;-90
2021/07/16 12:21:30;;;;;;;1.40;1.27;;;30.40;72.60;;;;;;5105241;28;20616;-91
2021/07/16 12:24:01;;;;;;;1.73;1.60;;;31.40;69.10;;;;;;5100280;28;20600;-88
2021/07/16 12:26:28;;;;;;;2.23;1.70;;;31.50;61.70;;;;;;5102337;28;21076;-89
2021/07/16 12:29:07;;;;;;;1.37;1.37;;;30.60;68.20;;;;;;5103099;28;20616;-89
2021/07/16 12:31:37;;;;;;;2.00;1.87;;;31.10;66.20;;;;;;5103936;28;20658;-92
2021/07/16 12:34:21;;;;;;;1.37;1.27;;;29.80;64.50;;;;;;5103051;28;20709;-89
2021/07/16 12:36:50;;;;;;;4.00;1.70;;;28.80;67.00;;;;;;5102802;28;20707;-91
2021/07/16 12:39:21;;;;;;;1.90;1.80;;;27.90;69.20;;;;;;5101078;28;20624;-89
2021/07/16 12:41:49;;;;;;;2.03;1.83;;;26.90;72.40;;;;;;5105083;28;20623;-88
2021/07/16 12:44:17;;;;;;;1.87;1.77;;;26.50;71.90;;;;;;5103574;28;20620;-90
2021/07/16 12:46:44;;;;;;;2.03;1.93;;;26.00;74.30;;;;;;5104888;28;20614;-88
2021/07/16 12:49:13;;;;;;;2.10;1.90;;;25.10;75.50;;;;;;5104798;28;20620;-89
2021/07/16 12:51:41;;;;;;;2.60;2.43;;;25.00;79.20;;;;;;5100258;28;21176;-85
2021/07/16 12:54:18;;;;;;;3.10;2.80;;;24.90;79.20;;;;;;5107779;28;20648;-88
2021/07/16 12:56:49;;;;;;;3.17;2.97;;;24.40;80.70;;;;;;5103525;28;20666;-90
2021/07/16 12:59:23;;;;;;;3.30;2.60;;;24.10;82.10;;;;;;5093871;28;21214;-88
2021/07/16 13:01:51;;;;;;;2.50;2.40;;;23.80;85.20;;;;;;5093351;28;20612;-87
2021/07/16 13:04:20;;;;;;;2.20;2.07;;;23.80;85.20;;;;;;5110676;28;20612;-86
2021/07/16 13:06:48;;;;;;;2.53;2.43;;;23.70;84.30;;;;;;5096118;28;20625;-90